Time;durP1;ratioP1;P1;durP2;ratioP2;P2;SDS_P1;SDS_P2;PMS_P1;PMS_P2;Temp;Humidity;BMP_temperature;BMP_pressure;BME280_temperature;BME280_humidity;BME280_pressure;Samples;Min_cycle;Max_cycle;Signal;HPM_P1;HPM_P2
2022/09/05 00:03:53;;;;;;;3.35;3.05;;;;;;;18.00;90.82;100921.72;8285019;28;20042;-52
2022/09/05 00:08:22;;;;;;;3.28;2.97;;;;;;;17.91;91.38;100922.78;8276741;28;20061;-53
2022/09/05 00:12:24;;;;;;;5.53;3.50;;;;;;;17.95;91.33;100917.78;8286049;28;20411;-53
2022/09/05 00:16:59;;;;;;;3.40;3.03;;;;;;;17.96;91.38;100914.06;8285375;28;20052;-53
2022/09/05 00:30:09;;;;;;;6.50;3.28;;;;;;;18.09;90.43;100904.25;8364948;27;20440;-52
2022/09/05 00:34:38;;;;;;;4.82;2.92;;;;;;;17.96;89.82;100908.56;8358094;28;20041;-52
2022/09/05 00:38:50;;;;;;;3.40;3.00;;;;;;;17.92;89.95;100919.00;8394304;28;20036;-52
2022/09/05 00:42:57;;;;;;;5.60;3.30;;;;;;;17.77;90.60;100909.84;8385258;28;20503;-52
2022/09/05 00:47:22;;;;;;;4.22;3.22;;;;;;;17.86;90.70;100911.50;8386612;28;20051;-52
2022/09/05 00:51:45;;;;;;;3.42;3.10;;;;;;;17.83;90.12;100902.81;8353373;28;20041;-53
2022/09/05 00:56:00;;;;;;;5.72;3.78;;;;;;;17.75;90.66;100911.91;8352957;28;20025;-53
2022/09/05 01:00:22;;;;;;;5.25;3.10;;;;;;;17.70;90.76;100908.84;8360254;28;20506;-50
2022/09/05 01:04:49;;;;;;;3.17;2.88;;;;;;;17.51;91.86;100904.63;8377553;28;20036;-52
2022/09/05 01:09:19;;;;;;;4.85;3.25;;;;;;;17.32;92.20;100917.81;8380499;28;20041;-52
2022/09/05 01:22:49;;;;;;;4.47;3.03;;;;;;;17.09;93.26;100919.56;8385853;27;20049;-52
2022/09/05 01:27:29;;;;;;;4.20;3.72;;;;;;;17.12;93.09;100916.50;8348187;28;20041;-51
2022/09/05 01:31:46;;;;;;;4.20;3.55;;;;;;;17.20;92.75;100919.22;8313503;28;20042;-49
2022/09/05 01:40:33;;;;;;;4.53;4.13;;;;;;;17.29;95.46;100919.03;8389254;27;21110;-50
2022/09/05 01:45:06;;;;;;;5.45;3.97;;;;;;;17.34;96.67;100916.63;8379530;28;20034;-51
2022/09/05 01:53:44;;;;;;;7.63;4.05;;;;;;;17.30;97.56;100911.69;8218740;28;20894;-51
2022/09/05 01:58:10;;;;;;;5.95;4.50;;;;;;;17.17;97.97;100912.22;8203413;28;20032;-49
2022/09/05 02:02:37;;;;;;;7.50;3.78;;;;;;;17.14;98.88;100903.53;8214261;28;20069;-50
2022/09/05 02:07:06;;;;;;;5.20;4.40;;;;;;;17.02;99.72;100896.72;8216333;28;20050;-46
2022/09/05 02:11:11;;;;;;;4.93;4.53;;;;;;;16.94;100.00;100910.34;8202801;28;20485;-47
2022/09/05 02:15:21;;;;;;;6.22;4.78;;;;;;;16.90;100.00;100898.09;8184421;28;20077;-47
2022/09/05 02:19:28;;;;;;;6.35;4.60;;;;;;;16.83;100.00;100897.03;8190290;28;20043;-47
2022/09/05 02:23:45;;;;;;;5.43;4.35;;;;;;;16.72;100.00;100897.41;8193832;28;20046;-46
2022/09/05 02:27:53;;;;;;;8.23;5.13;;;;;;;16.69;100.00;100914.13;8210642;28;20044;-46
2022/09/05 02:32:07;;;;;;;6.80;4.38;;;;;;;16.85;100.00;100911.38;8178931;28;20554;-47
2022/09/05 02:36:17;;;;;;;8.35;4.57;;;;;;;16.88;99.47;100905.59;8184705;28;20518;-46
2022/09/05 02:40:41;;;;;;;5.07;3.97;;;;;;;16.96;98.54;100908.31;8185200;28;20047;-47
2022/09/05 02:44:57;;;;;;;6.80;4.30;;;;;;;16.98;97.50;100908.97;8188227;28;20049;-46
2022/09/05 02:49:06;;;;;;;7.38;4.68;;;;;;;16.75;99.06;100908.84;8188400;28;20420;-46
2022/09/05 02:53:10;;;;;;;4.82;4.05;;;;;;;16.59;100.00;100910.72;8186557;28;20050;-47
2022/09/05 02:57:35;;;;;;;6.68;4.20;;;;;;;16.85;100.00;100914.13;8184003;28;20102;-47
2022/09/05 03:02:15;;;;;;;6.07;3.78;;;;;;;16.83;100.00;100918.88;8182075;28;20047;-48
2022/09/05 03:06:35;;;;;;;7.65;4.68;;;;;;;16.77;100.00;100914.13;8156794;28;20124;-47
2022/09/05 03:11:16;;;;;;;5.40;4.30;;;;;;;16.71;100.00;100910.19;8161860;28;20102;-47
2022/09/05 03:15:47;;;;;;;5.38;4.28;;;;;;;16.60;100.00;100906.94;8156238;28;20072;-46
2022/09/05 03:24:54;;;;;;;6.80;5.32;;;;;;;16.49;100.00;100910.00;8412654;27;20909;-46
2022/09/05 03:29:34;;;;;;;5.65;4.65;;;;;;;16.32;100.00;100909.13;8377858;28;20064;-45
2022/09/05 03:34:13;;;;;;;5.80;5.25;;;;;;;16.15;100.00;100911.94;8352843;28;20033;-45
2022/09/05 03:38:53;;;;;;;10.38;5.18;;;;;;;16.08;100.00;100908.19;8372489;28;20148;-46
2022/09/05 03:48:11;;;;;;;9.75;5.47;;;;;;;16.19;100.00;100913.34;8384198;27;20860;-46
2022/09/05 03:52:25;;;;;;;5.82;4.85;;;;;;;16.24;100.00;100913.69;8375082;28;20418;-45
2022/09/05 03:56:38;;;;;;;6.93;4.90;;;;;;;16.24;100.00;100913.69;8386899;27;20036;-46
2022/09/05 04:00:42;;;;;;;8.57;4.78;;;;;;;16.14;100.00;100912.97;8387762;27;20036;-46
2022/09/05 04:04:51;;;;;;;7.60;5.15;;;;;;;16.16;100.00;100913.69;8390172;27;20182;-46
2022/09/05 04:09:31;;;;;;;12.57;5.00;;;;;;;16.10;100.00;100908.91;8360354;28;20095;-46
2022/09/05 04:13:54;;;;;;;10.18;5.38;;;;;;;16.11;100.00;100911.44;8366647;28;20044;-46
2022/09/05 04:18:03;;;;;;;11.38;5.18;;;;;;;16.02;100.00;100917.03;8350806;28;20033;-47
2022/09/05 04:22:27;;;;;;;6.75;5.45;;;;;;;16.01;100.00;100920.78;8357422;28;20038;-46
2022/09/05 04:26:55;;;;;;;7.20;4.95;;;;;;;15.92;100.00;100919.06;8361296;28;20041;-46
2022/09/05 04:31:07;;;;;;;7.53;5.43;;;;;;;15.95;100.00;100922.28;8389628;27;20506;-45
2022/09/05 04:39:41;;;;;;;6.90;5.22;;;;;;;15.82;100.00;100921.06;8321906;28;20386;-45
2022/09/05 04:43:50;;;;;;;5.65;5.13;;;;;;;15.86;100.00;100912.41;8282811;28;20048;-45
2022/09/05 04:47:53;;;;;;;5.93;5.30;;;;;;;15.89;100.00;100916.66;8308032;28;20089;-46
2022/09/05 04:52:34;;;;;;;7.40;5.55;;;;;;;15.77;100.00;100930.56;8287332;28;20034;-46
2022/09/05 04:56:43;;;;;;;6.25;5.65;;;;;;;15.73;100.00;100934.66;8279954;28;20045;-45
2022/09/05 05:00:56;;;;;;;7.47;5.38;;;;;;;15.52;100.00;100934.22;8274599;28;20420;-46
2022/09/05 05:05:01;;;;;;;7.10;5.63;;;;;;;15.64;100.00;100935.63;8274872;28;20038;-46
2022/09/05 05:09:25;;;;;;;8.68;5.03;;;;;;;15.73;100.00;100946.59;8279423;28;20649;-45
2022/09/05 05:13:46;;;;;;;;;;;;;;;15.90;100.00;100951.94;8245790;28;20043;-45
2022/09/05 05:17:56;;;;;;;9.55;5.30;;;;;;;15.99;100.00;100950.09;8283028;28;19971;-46
2022/09/05 05:22:00;;;;;;;7.72;5.47;;;;;;;15.96;100.00;100953.16;8283409;28;20049;-47
2022/09/05 05:26:05;;;;;;;5.93;5.32;;;;;;;15.98;100.00;100953.84;8421248;22;20791;-46
2022/09/05 05:30:09;;;;;;;7.10;6.05;;;;;;;16.05;100.00;100954.91;8268709;28;20495;-48
2022/09/05 05:34:23;;;;;;;7.07;5.80;;;;;;;16.11;100.00;100951.50;8270151;28;20502;-47
2022/09/05 05:38:37;;;;;;;7.82;5.68;;;;;;;16.01;100.00;100950.81;8280888;28;20495;-48
2022/09/05 05:42:39;;;;;;;6.03;5.32;;;;;;;16.18;100.00;100955.28;8278489;28;20045;-48
2022/09/05 05:46:45;;;;;;;6.55;5.43;;;;;;;16.38;100.00;100953.97;8268623;28;20077;-48
2022/09/05 05:51:26;;;;;;;8.98;5.47;;;;;;;16.76;98.83;100967.03;8262152;28;20042;-49
2022/09/05 06:04:49;;;;;;;8.00;4.75;;;;;;;17.36;95.36;100971.13;8378456;27;20440;-50
2022/09/05 06:13:58;;;;;;;5.78;4.43;;;;;;;17.88;93.76;100966.91;8420667;27;20928;-49
2022/09/05 06:23:12;;;;;;;8.75;4.88;;;;;;;18.42;90.89;100970.63;8325877;27;20504;-47
2022/09/05 06:27:36;;;;;;;10.20;4.97;;;;;;;18.70;89.66;100969.91;8316872;28;20041;-48
2022/09/05 06:45:10;;;;;;;8.55;4.88;;;;;;;19.96;83.29;100980.06;8403959;27;20206;-50
2022/09/05 06:49:26;;;;;;;8.52;4.55;;;;;;;20.01;83.77;100989.44;8350754;28;20128;-50
2022/09/05 06:54:07;;;;;;;5.18;3.00;;;;;;;20.46;81.61;100988.38;8345467;28;20082;-49
2022/09/05 06:58:47;;;;;;;10.15;4.00;;;;;;;20.78;81.18;100990.66;8362508;28;20041;-48
2022/09/05 07:03:18;;;;;;;5.72;3.08;;;;;;;20.79;78.06;100984.09;8350316;28;20045;-49
2022/09/05 07:07:36;;;;;;;10.93;3.42;;;;;;;20.78;77.77;100985.16;8351976;28;20138;-52
2022/09/05 07:11:51;;;;;;;5.05;3.35;;;;;;;21.14;77.35;100995.06;8350510;28;20036;-52
2022/09/05 07:16:00;;;;;;;8.60;3.00;;;;;;;21.26;75.64;100987.97;8351087;28;20052;-48
2022/09/05 07:20:12;;;;;;;11.32;3.47;;;;;;;21.38;75.34;100985.56;8350253;28;20124;-50
2022/09/05 07:24:19;;;;;;;3.90;3.30;;;;;;;21.60;75.05;100989.97;8351537;28;20088;-50
2022/09/05 07:28:20;;;;;;;6.88;3.20;;;;;;;21.92;73.08;100997.63;8351512;28;20041;-49
2022/09/05 07:32:22;;;;;;;8.98;2.83;;;;;;;22.35;72.93;100995.53;8350868;28;20124;-50
2022/09/05 07:36:31;;;;;;;7.60;2.67;;;;;;;22.79;70.78;100999.56;8349713;28;20167;-52
2022/09/05 07:40:38;;;;;;;4.78;2.70;;;;;;;22.97;69.22;100997.03;8358869;28;20109;-52
2022/09/05 07:44:46;;;;;;;8.10;2.58;;;;;;;23.04;68.77;100986.88;8373929;28;20067;-48
2022/09/05 07:48:54;;;;;;;9.30;2.55;;;;;;;23.48;68.73;100988.22;8360984;28;20043;-49
2022/09/05 07:52:59;;;;;;;8.23;2.28;;;;;;;23.75;66.77;100984.38;8345109;28;20080;-51
2022/09/05 07:57:03;;;;;;;10.55;2.70;;;;;;;24.10;66.33;100994.94;8329186;28;20041;-51
2022/09/05 08:01:04;;;;;;;18.38;2.70;;;;;;;24.33;66.39;100994.44;8324542;28;20045;-51
2022/09/05 08:05:05;;;;;;;8.55;2.08;;;;;;;24.76;63.61;100990.00;8325157;28;20052;-49
2022/09/05 08:09:16;;;;;;;5.28;2.10;;;;;;;25.02;63.23;100985.19;8326594;28;20037;-52
2022/09/05 08:13:22;;;;;;;11.25;2.63;;;;;;;25.09;63.22;100996.19;8326203;28;20401;-51
2022/09/05 08:17:25;;;;;;;5.32;2.28;;;;;;;25.54;61.76;100983.94;8326061;28;20045;-49
2022/09/05 08:21:42;;;;;;;14.30;2.40;;;;;;;25.52;61.08;100980.56;8326352;28;20564;-49
2022/09/05 08:26:03;;;;;;;5.63;1.90;;;;;;;25.85;60.73;100985.78;8325744;28;20072;-49
2022/09/05 08:30:07;;;;;;;12.88;2.50;;;;;;;26.24;60.25;100979.84;8320065;28;20037;-53
2022/09/05 08:34:17;;;;;;;5.67;1.60;;;;;;;26.35;58.72;100977.13;8323421;28;20072;-51
2022/09/05 08:38:18;;;;;;;9.40;2.75;;;;;;;26.33;58.74;100976.53;8316740;28;20045;-49
2022/09/05 08:46:51;;;;;;;15.55;2.75;;;;;;;27.32;57.60;100967.69;8292208;28;20401;-50
2022/09/05 08:51:31;;;;;;;5.00;1.98;;;;;;;27.21;56.47;100968.47;8286682;28;20030;-49
2022/09/05 08:55:58;;;;;;;4.80;1.50;;;;;;;27.55;54.82;100967.72;8279855;28;20041;-50
2022/09/05 09:00:06;;;;;;;3.30;1.48;;;;;;;27.90;53.45;100961.09;8282614;28;20121;-50
2022/09/05 09:04:33;;;;;;;5.38;1.42;;;;;;;28.05;53.35;100963.38;8285586;28;20046;-49
2022/09/05 09:09:06;;;;;;;5.22;1.10;;;;;;;28.27;51.54;100964.47;8285576;28;20410;-50
2022/09/05 09:13:17;;;;;;;3.17;0.93;;;;;;;28.32;51.12;100956.19;8281261;28;20549;-52
2022/09/05 09:17:27;;;;;;;9.45;1.30;;;;;;;28.71;51.32;100952.59;8284775;28;20030;-52
2022/09/05 09:22:07;;;;;;;8.00;1.30;;;;;;;28.92;49.77;100932.41;8286043;28;20138;-49
2022/09/05 09:26:14;;;;;;;8.88;1.38;;;;;;;29.07;48.35;100946.66;8280234;28;20038;-52
2022/09/05 09:30:16;;;;;;;3.42;1.63;;;;;;;29.52;47.87;100939.03;8281494;28;20038;-50
2022/09/05 09:39:12;;;;;;;6.70;1.05;;;;;;;33.22;41.15;100932.38;8385921;28;20345;-52
2022/09/05 09:43:52;;;;;;;4.97;1.03;;;;;;;33.78;39.38;100934.03;8384722;28;20040;-53
2022/09/05 09:48:25;;;;;;;2.30;0.90;;;;;;;34.60;39.04;100941.97;8383189;28;20333;-50
2022/09/05 09:52:33;;;;;;;;;;;;;;;34.54;38.15;100936.66;8353922;28;20042;-51
2022/09/05 09:57:13;;;;;;;2.42;1.15;;;;;;;35.24;38.55;100941.88;8348815;28;19971;-51
2022/09/05 10:01:31;;;;;;;4.00;0.88;;;;;;;35.85;36.96;100925.34;8365210;28;20079;-53
2022/09/05 10:14:55;;;;;;;2.72;1.15;;;;;;;35.62;36.38;100912.88;8324182;27;20371;-48
2022/09/05 10:19:36;;;;;;;5.60;1.30;;;;;;;37.43;35.50;100915.03;8314585;28;20531;-49
2022/09/05 10:24:26;;;;;;;2.10;0.80;;;;;;;36.05;34.96;100905.41;8395288;27;20353;-52
2022/09/05 10:29:07;;;;;;;1.55;0.85;;;;;;;36.31;34.82;100907.66;8363898;28;20045;-49
2022/09/05 10:33:25;;;;;;;2.25;0.73;;;;;;;36.41;34.29;100895.41;8384106;28;20040;-51
2022/09/05 10:37:40;;;;;;;1.85;0.88;;;;;;;37.55;34.50;100902.41;8384196;28;20039;-52
2022/09/05 10:41:49;;;;;;;1.80;0.68;;;;;;;37.15;33.44;100884.16;8383814;28;20040;-52
2022/09/05 10:46:04;;;;;;;2.33;0.93;;;;;;;36.80;34.26;100888.38;8377714;28;20037;-52
2022/09/05 10:50:27;;;;;;;4.10;1.00;;;;;;;37.19;33.87;100880.47;8379192;28;20033;-50
2022/09/05 10:54:48;;;;;;;;;;;;;;;36.52;33.99;100883.69;8383037;28;20094;-52
2022/09/05 10:59:07;;;;;;;9.40;0.80;;;;;;;36.90;33.98;100876.94;8382761;28;19912;-49
2022/09/05 11:03:17;;;;;;;2.65;0.77;;;;;;;36.77;34.04;100863.63;8377965;28;20044;-50
2022/09/05 11:07:28;;;;;;;3.03;0.80;;;;;;;38.20;33.16;100861.66;8383470;28;20512;-53
2022/09/05 11:11:54;;;;;;;4.38;0.95;;;;;;;38.47;32.67;100861.59;8377601;28;20040;-50
2022/09/05 11:16:06;;;;;;;3.10;0.80;;;;;;;37.38;33.12;100858.66;8382594;28;20029;-51
2022/09/05 11:20:44;;;;;;;1.67;0.88;;;;;;;37.59;34.51;100849.84;8377327;28;20083;-52
2022/09/05 11:25:02;;;;;;;2.25;1.02;;;;;;;38.56;32.66;100859.72;8375349;28;20044;-51
2022/09/05 11:29:09;;;;;;;2.13;0.70;;;;;;;38.48;31.63;100851.97;8377126;28;20487;-50
2022/09/05 11:33:38;;;;;;;0.90;0.60;;;;;;;39.52;30.64;100853.38;8360052;28;20501;-49
2022/09/05 11:42:31;;;;;;;1.10;0.55;;;;;;;38.92;31.65;100852.06;8322726;27;20383;-52
2022/09/05 11:46:40;;;;;;;2.15;0.70;;;;;;;38.73;30.58;100848.56;8314781;28;20065;-48
2022/09/05 11:50:58;;;;;;;4.82;0.57;;;;;;;39.34;30.54;100843.09;8316056;28;20038;-50
2022/09/05 11:55:31;;;;;;;2.88;1.15;;;;;;;38.78;30.98;100846.44;8314360;28;20117;-49
2022/09/05 12:00:11;;;;;;;1.17;0.73;;;;;;;38.45;30.42;100830.00;8317379;28;20091;-51
2022/09/05 12:04:35;;;;;;;3.03;0.90;;;;;;;38.56;30.25;100831.44;8311757;28;20068;-49
2022/09/05 12:08:41;;;;;;;2.70;0.73;;;;;;;39.55;30.40;100821.59;8317538;28;20626;-52
2022/09/05 12:12:59;;;;;;;1.52;0.82;;;;;;;40.03;29.71;100822.47;8312556;28;20373;-54
2022/09/05 12:17:25;;;;;;;1.42;1.00;;;;;;;39.07;29.64;100814.94;8316414;28;20041;-50
2022/09/05 12:21:36;;;;;;;2.75;0.80;;;;;;;36.43;31.57;100808.56;8311466;28;20511;-51
2022/09/05 12:26:01;;;;;;;0.50;0.50;;;;;;;34.74;33.04;100802.53;8311926;28;20037;-53
2022/09/05 12:30:08;;;;;;;1.13;0.65;;;;;;;34.81;33.54;100802.16;8309281;28;20037;-50
2022/09/05 12:34:17;;;;;;;1.92;0.70;;;;;;;33.56;35.41;100801.69;8310917;28;20068;-50
2022/09/05 12:38:45;;;;;;;1.83;0.70;;;;;;;33.44;35.80;100803.94;8310548;28;20379;-53
2022/09/05 12:42:55;;;;;;;2.15;0.80;;;;;;;32.99;35.51;100795.56;8303817;28;20057;-52
2022/09/05 12:47:02;;;;;;;3.28;1.00;;;;;;;32.64;34.90;100778.72;8311858;28;20044;-53
2022/09/05 12:51:08;;;;;;;2.55;0.75;;;;;;;32.22;35.29;100778.06;8305837;28;20490;-52
2022/09/05 12:55:24;;;;;;;2.30;0.60;;;;;;;31.77;36.31;100791.84;8292138;28;20411;-50
2022/09/05 12:59:27;;;;;;;1.08;0.75;;;;;;;31.71;35.34;100788.19;8293845;28;20030;-52
2022/09/05 13:03:29;;;;;;;1.10;0.73;;;;;;;31.47;35.78;100772.16;8292925;28;20053;-50
2022/09/05 13:07:39;;;;;;;3.38;0.65;;;;;;;31.47;35.97;100783.34;8290071;28;20117;-51
2022/09/05 13:11:46;;;;;;;2.38;1.00;;;;;;;31.49;35.50;100781.94;8291350;28;20041;-50
2022/09/05 13:15:51;;;;;;;2.13;0.70;;;;;;;31.68;35.51;100771.16;8289639;28;20406;-50
2022/09/05 13:19:53;;;;;;;0.82;0.65;;;;;;;31.64;35.40;100765.25;8290352;28;20056;-50
2022/09/05 13:24:13;;;;;;;1.13;0.50;;;;;;;31.61;36.47;100759.34;8309625;28;20068;-51
2022/09/05 13:28:14;;;;;;;5.03;0.73;;;;;;;31.50;35.86;100758.47;8276891;28;20042;-53
2022/09/05 13:32:20;;;;;;;1.02;0.50;;;;;;;31.70;36.08;100757.72;8287201;28;20037;-49
2022/09/05 13:36:25;;;;;;;1.77;0.70;;;;;;;31.48;37.47;100754.25;8288343;28;20116;-50
2022/09/05 13:40:32;;;;;;;3.25;0.80;;;;;;;31.37;36.28;100749.72;8290028;28;20042;-51
2022/09/05 13:44:41;;;;;;;2.50;0.55;;;;;;;31.10;35.97;100735.00;8289084;28;20038;-49
2022/09/05 13:53:30;;;;;;;2.65;0.70;;;;;;;31.17;36.52;100730.03;8285880;27;20421;-49
2022/09/05 13:57:45;;;;;;;2.17;0.60;;;;;;;31.16;36.61;100717.16;8278085;28;20122;-50
2022/09/05 14:02:25;;;;;;;3.15;0.80;;;;;;;31.20;36.50;100723.88;8278836;28;20057;-51
2022/09/05 14:06:55;;;;;;;2.13;0.95;;;;;;;31.13;35.95;100718.53;8276429;28;20137;-48
2022/09/05 14:11:35;;;;;;;2.25;0.60;;;;;;;31.28;36.18;100712.22;8269286;28;20487;-49
2022/09/05 14:16:00;;;;;;;2.22;0.80;;;;;;;31.29;36.54;100713.91;8278518;28;20038;-49
2022/09/05 14:21:19;;;;;;;1.90;0.82;;;;;;;31.60;37.56;100710.13;8276129;28;20590;-51
2022/09/05 14:24:26;;;;;;;1.25;0.80;;;;;;;31.61;37.18;100714.59;8278845;28;20034;-51
2022/09/05 14:28:34;;;;;;;3.47;0.70;;;;;;;31.39;37.43;100711.16;8277942;28;20042;-48
2022/09/05 14:32:50;;;;;;;5.32;1.00;;;;;;;31.21;36.76;100704.06;8277823;28;20578;-52
2022/09/05 14:37:30;;;;;;;2.35;1.02;;;;;;;31.08;36.63;100698.09;8277316;28;20065;-49
2022/09/05 14:41:43;;;;;;;3.90;0.80;;;;;;;30.99;36.74;100699.72;8276681;28;20046;-48
2022/09/05 14:50:36;;;;;;;1.38;0.90;;;;;;;31.04;37.63;100688.59;8384260;27;20397;-49
2022/09/05 14:54:38;;;;;;;5.25;0.90;;;;;;;31.14;37.58;100685.84;8391695;28;20039;-51
2022/09/05 14:58:40;;;;;;;2.47;0.88;;;;;;;31.14;37.11;100691.44;8358376;28;20041;-52
2022/09/05 15:02:43;;;;;;;3.38;1.10;;;;;;;31.08;37.58;100686.94;8368942;28;20037;-49
2022/09/05 15:06:58;;;;;;;3.42;0.63;;;;;;;30.89;37.58;100674.53;8378605;28;20070;-49
2022/09/05 15:11:08;;;;;;;2.25;0.80;;;;;;;30.87;37.95;100680.38;8377723;28;20078;-49
2022/09/05 15:15:16;;;;;;;1.73;0.90;;;;;;;30.93;38.37;100678.47;8372236;28;20083;-51
2022/09/05 15:19:47;;;;;;;1.80;0.80;;;;;;;30.78;38.61;100664.41;8377889;28;20028;-50
2022/09/05 15:24:24;;;;;;;3.75;0.93;;;;;;;30.59;40.22;100677.06;8361294;28;20119;-52
2022/09/05 15:28:46;;;;;;;3.88;1.25;;;;;;;30.46;40.68;100683.13;8376095;28;20036;-48
2022/09/05 15:32:47;;;;;;;1.92;0.90;;;;;;;30.31;40.86;100681.88;8364593;28;20067;-50
2022/09/05 15:36:47;;;;;;;3.22;1.10;;;;;;;30.28;41.32;100671.25;8369774;28;20041;-52
2022/09/05 15:41:13;;;;;;;2.28;0.90;;;;;;;30.26;40.86;100665.09;8375306;28;20098;-53
2022/09/05 15:45:21;;;;;;;3.33;1.25;;;;;;;30.19;41.33;100661.66;8377418;28;20090;-52
2022/09/05 15:49:51;;;;;;;4.40;1.20;;;;;;;30.20;41.75;100656.94;8373067;28;20036;-50
2022/09/05 15:53:52;;;;;;;5.75;1.30;;;;;;;30.21;40.88;100653.88;8372659;28;20036;-50
2022/09/05 15:57:58;;;;;;;3.53;1.13;;;;;;;30.10;41.00;100652.06;8376431;28;20041;-51
2022/09/05 16:02:07;;;;;;;2.40;0.82;;;;;;;30.07;41.14;100647.00;8355166;28;20683;-51
2022/09/05 16:06:11;;;;;;;3.00;1.38;;;;;;;30.07;41.65;100649.81;8353857;28;20033;-50
2022/09/05 16:10:17;;;;;;;;;;;;;;;30.04;41.25;100641.16;8353460;28;20052;-51
2022/09/05 16:14:26;;;;;;;2.88;0.98;;;;;;;29.96;41.75;100639.69;8347333;28;19924;-49
2022/09/05 16:18:38;;;;;;;3.35;1.42;;;;;;;29.92;41.86;100646.88;8349396;28;20394;-50
2022/09/05 16:22:46;;;;;;;1.80;0.90;;;;;;;29.87;41.42;100649.63;8346845;28;20099;-49
2022/09/05 16:26:50;;;;;;;2.78;0.90;;;;;;;29.78;41.57;100642.84;8350235;28;20060;-52
2022/09/05 16:31:00;;;;;;;2.92;0.90;;;;;;;29.71;42.63;100642.22;8348829;28;20041;-49
2022/09/05 16:35:05;;;;;;;2.03;1.17;;;;;;;29.62;41.90;100638.22;8344830;28;20045;-51
2022/09/05 16:39:13;;;;;;;1.52;0.88;;;;;;;29.55;42.54;100633.91;8351054;28;20052;-50
2022/09/05 16:43:19;;;;;;;2.65;1.10;;;;;;;29.46;42.14;100625.16;8337166;28;20045;-50
2022/09/05 16:47:33;;;;;;;2.28;1.10;;;;;;;29.42;42.74;100621.22;8349203;28;20045;-50
2022/09/05 16:51:45;;;;;;;1.23;1.00;;;;;;;29.36;42.21;100619.47;8352393;28;20086;-49
2022/09/05 16:55:53;;;;;;;2.67;1.00;;;;;;;29.37;42.34;100618.38;8348953;28;20037;-49
2022/09/05 16:59:55;;;;;;;1.60;1.15;;;;;;;29.26;42.49;100622.16;8346636;28;20413;-49
2022/09/05 17:04:17;;;;;;;1.40;1.10;;;;;;;29.16;42.58;100622.03;8349001;28;20040;-49
2022/09/05 17:08:27;;;;;;;2.83;1.10;;;;;;;29.06;43.29;100615.47;8346375;28;20068;-49
2022/09/05 17:12:32;;;;;;;2.30;0.90;;;;;;;29.00;43.35;100611.72;8348263;28;20124;-49
2022/09/05 17:16:58;;;;;;;1.88;0.80;;;;;;;28.90;43.64;100610.78;8346550;28;20068;-50
2022/09/05 17:21:05;;;;;;;2.25;1.30;;;;;;;28.78;43.63;100613.66;8349578;28;20525;-50
2022/09/05 17:25:17;;;;;;;4.85;1.10;;;;;;;28.67;44.52;100600.72;8348595;28;20119;-49
2022/09/05 17:29:53;;;;;;;5.70;1.40;;;;;;;28.58;43.82;100603.06;8344923;28;20045;-52
2022/09/05 17:33:55;;;;;;;4.03;1.02;;;;;;;28.49;44.51;100603.78;8332497;28;20124;-52
2022/09/05 17:38:17;;;;;;;3.13;1.05;;;;;;;28.36;45.13;100604.13;8344323;28;20066;-49
2022/09/05 17:42:47;;;;;;;4.30;1.83;;;;;;;28.26;44.75;100603.94;8347706;28;20076;-49
2022/09/05 17:47:09;;;;;;;5.07;1.27;;;;;;;28.18;45.19;100612.72;8351313;28;20076;-49
2022/09/05 17:51:09;;;;;;;1.08;0.98;;;;;;;28.15;44.78;100616.00;8334322;28;20065;-49
2022/09/05 17:55:11;;;;;;;6.43;1.20;;;;;;;27.81;46.53;100603.16;8350266;28;20041;-52
2022/09/05 18:07:54;;;;;;;6.03;1.52;;;;;;;27.11;48.02;100610.06;8351500;27;20851;-48
2022/09/05 18:12:24;;;;;;;5.30;1.38;;;;;;;27.04;47.65;100612.16;8345164;28;20056;-49
2022/09/05 18:16:34;;;;;;;1.90;1.45;;;;;;;27.05;47.46;100605.50;8339374;28;20120;-50
2022/09/05 18:20:42;;;;;;;2.95;1.13;;;;;;;26.86;48.92;100613.13;8311573;28;20037;-49
2022/09/05 18:25:05;;;;;;;2.40;1.33;;;;;;;26.83;48.15;100620.03;8308462;28;20644;-50
2022/09/05 18:29:23;;;;;;;5.10;1.50;;;;;;;26.95;47.11;100605.28;8293842;28;20405;-49
2022/09/05 18:33:24;;;;;;;4.20;1.60;;;;;;;26.92;47.66;100611.31;8308898;28;20038;-51
2022/09/05 18:42:02;;;;;;;3.85;1.70;;;;;;;26.20;51.33;100607.94;8408581;27;20843;-49
2022/09/05 18:50:32;;;;;;;4.25;1.98;;;;;;;25.48;57.00;100613.78;8335559;27;20454;-48
2022/09/05 18:54:33;;;;;;;5.05;1.50;;;;;;;25.83;51.47;100608.34;8336575;28;20065;-48
2022/09/05 18:58:44;;;;;;;4.20;3.00;;;;;;;25.54;53.63;100601.75;8342539;28;20036;-48
2022/09/05 19:02:54;;;;;;;7.93;1.20;;;;;;;25.54;52.23;100596.22;8298635;28;20450;-48
2022/09/05 19:06:57;;;;;;;4.15;1.98;;;;;;;25.65;51.17;100603.75;8320261;28;20036;-48
2022/09/05 19:11:00;;;;;;;4.95;1.00;;;;;;;25.21;54.43;100606.03;8306409;28;20104;-49
2022/09/05 19:15:06;;;;;;;2.45;1.33;;;;;;;25.58;55.89;100607.69;8315704;28;20518;-48
2022/09/05 19:19:13;;;;;;;3.45;1.60;;;;;;;25.31;57.07;100598.84;8311305;28;20039;-52
2022/09/05 19:23:21;;;;;;;2.38;1.30;;;;;;;24.94;59.90;100614.69;8311561;28;20038;-49
2022/09/05 19:27:22;;;;;;;2.13;1.55;;;;;;;25.09;57.01;100603.22;8311199;28;20068;-47
2022/09/05 19:31:28;;;;;;;2.25;1.35;;;;;;;25.10;57.02;100604.06;8302305;28;20491;-48
2022/09/05 19:35:31;;;;;;;2.38;1.52;;;;;;;24.50;62.08;100605.81;8297535;28;20034;-49
2022/09/05 19:39:44;;;;;;;1.83;1.43;;;;;;;24.18;62.03;100604.22;8300968;28;20030;-50
2022/09/05 19:44:06;;;;;;;5.35;2.08;;;;;;;24.46;56.88;100601.81;8304485;28;20040;-48
2022/09/05 19:52:28;;;;;;;1.98;1.42;;;;;;;24.65;55.87;100585.03;8316312;28;20129;-47
2022/09/05 19:56:41;;;;;;;5.60;1.50;;;;;;;24.53;59.27;100583.22;8264636;28;20220;-47
2022/09/05 20:00:44;;;;;;;2.05;1.40;;;;;;;24.54;57.33;100582.16;8287639;28;20081;-50
2022/09/05 20:04:48;;;;;;;5.57;1.33;;;;;;;24.37;57.16;100592.13;8268595;28;20050;-48
2022/09/05 20:08:48;;;;;;;2.78;1.42;;;;;;;24.45;61.47;100595.44;8278568;28;20043;-50
2022/09/05 20:12:49;;;;;;;3.00;1.90;;;;;;;24.71;58.51;100586.03;8301171;28;20392;-48
2022/09/05 20:16:51;;;;;;;4.18;2.03;;;;;;;24.29;63.48;100589.66;8276857;28;20054;-50
2022/09/05 20:21:03;;;;;;;3.85;1.73;;;;;;;24.03;62.52;100585.22;8293637;28;20042;-49
2022/09/05 20:25:10;;;;;;;6.50;1.52;;;;;;;24.28;60.79;100590.72;8271459;28;20045;-48
2022/09/05 20:29:18;;;;;;;7.07;1.63;;;;;;;24.57;57.44;100590.84;8287020;28;20069;-51
2022/09/05 20:33:28;;;;;;;8.63;1.65;;;;;;;24.40;59.59;100586.16;8266104;28;20465;-52
2022/09/05 20:37:30;;;;;;;7.80;2.05;;;;;;;24.41;58.03;100576.75;8301979;28;20033;-51
2022/09/05 20:41:31;;;;;;;3.05;1.33;;;;;;;24.08;60.09;100581.75;8312985;28;20034;-49
2022/09/05 20:45:43;;;;;;;3.97;1.67;;;;;;;24.03;60.61;100585.22;8287279;28;20136;-50
2022/09/05 20:49:48;;;;;;;2.72;1.67;;;;;;;24.21;58.49;100581.66;8289544;28;20073;-48
2022/09/05 20:53:49;;;;;;;5.13;1.50;;;;;;;24.44;55.68;100576.31;8289265;28;20120;-49
2022/09/05 20:57:49;;;;;;;4.20;1.80;;;;;;;24.38;57.52;100571.69;8279470;28;20041;-48
2022/09/05 21:01:59;;;;;;;6.70;1.90;;;;;;;24.17;59.04;100575.72;8273987;28;20059;-48
2022/09/05 21:06:22;;;;;;;6.70;1.70;;;;;;;23.88;59.90;100575.56;8250859;28;20050;-49
2022/09/05 21:10:26;;;;;;;5.32;1.73;;;;;;;23.69;61.77;100576.56;8276187;28;20099;-46
2022/09/05 21:14:27;;;;;;;9.30;2.37;;;;;;;23.68;60.45;100580.38;8289641;28;20040;-50
2022/09/05 21:18:31;;;;;;;5.20;2.05;;;;;;;23.79;59.67;100565.84;8285377;28;20285;-50
2022/09/05 21:22:38;;;;;;;8.37;2.00;;;;;;;23.98;59.12;100565.72;8279967;28;20054;-51
2022/09/05 21:26:39;;;;;;;6.93;1.65;;;;;;;23.76;58.40;100560.78;8273315;28;20141;-49
2022/09/05 21:30:43;;;;;;;2.53;1.52;;;;;;;23.49;59.03;100564.81;8250523;28;20047;-49
2022/09/05 21:34:50;;;;;;;5.28;1.92;;;;;;;23.49;58.65;100553.75;8259104;28;20117;-53
2022/09/05 21:38:51;;;;;;;3.83;1.63;;;;;;;23.38;59.45;100552.56;8261674;28;20069;-53
2022/09/05 21:42:51;;;;;;;1.90;1.70;;;;;;;23.24;59.96;100544.59;8256991;28;20043;-50
2022/09/05 21:46:52;;;;;;;5.13;1.70;;;;;;;23.33;59.70;100543.28;8253134;28;20079;-49
2022/09/05 21:50:56;;;;;;;5.38;1.77;;;;;;;23.20;59.22;100536.72;8266319;28;20050;-50